sensor_id;sensor_type;location;lat;lon;timestamp;P1;durP1;ratioP1;P2;durP2;ratioP2
75059;SDS011;63640;59.264;18.116;2023-06-19T00:01:09;26.60;;;17.27;;
75059;SDS011;63640;59.264;18.116;2023-06-19T00:03:34;25.38;;;16.95;;
75059;SDS011;63640;59.264;18.116;2023-06-19T00:05:59;27.85;;;17.65;;
75059;SDS011;63640;59.264;18.116;2023-06-19T00:08:25;24.83;;;16.38;;
75059;SDS011;63640;59.264;18.116;2023-06-19T00:10:50;26.75;;;17.85;;
75059;SDS011;63640;59.264;18.116;2023-06-19T00:13:16;26.70;;;17.25;;
75059;SDS011;63640;59.264;18.116;2023-06-19T00:15:42;24.13;;;16.33;;
75059;SDS011;63640;59.264;18.116;2023-06-19T00:18:08;26.77;;;17.05;;
75059;SDS011;63640;59.264;18.116;2023-06-19T00:20:35;26.90;;;17.38;;
75059;SDS011;63640;59.264;18.116;2023-06-19T00:23:01;23.25;;;16.55;;
75059;SDS011;63640;59.264;18.116;2023-06-19T00:25:27;28.27;;;17.67;;
75059;SDS011;63640;59.264;18.116;2023-06-19T00:27:52;26.30;;;17.50;;
75059;SDS011;63640;59.264;18.116;2023-06-19T00:30:17;32.80;;;20.08;;
75059;SDS011;63640;59.264;18.116;2023-06-19T00:32:43;25.90;;;17.83;;
75059;SDS011;63640;59.264;18.116;2023-06-19T00:35:14;28.88;;;17.23;;
75059;SDS011;63640;59.264;18.116;2023-06-19T00:37:41;28.67;;;18.20;;
75059;SDS011;63640;59.264;18.116;2023-06-19T00:40:12;27.00;;;19.38;;
75059;SDS011;63640;59.264;18.116;2023-06-19T00:42:42;27.35;;;17.67;;
75059;SDS011;63640;59.264;18.116;2023-06-19T00:45:07;25.63;;;17.23;;
75059;SDS011;63640;59.264;18.116;2023-06-19T00:47:33;34.55;;;21.13;;
75059;SDS011;63640;59.264;18.116;2023-06-19T00:49:59;29.30;;;19.08;;
75059;SDS011;63640;59.264;18.116;2023-06-19T00:52:24;28.52;;;19.15;;
75059;SDS011;63640;59.264;18.116;2023-06-19T00:54:50;33.38;;;20.35;;
75059;SDS011;63640;59.264;18.116;2023-06-19T00:57:15;30.42;;;21.55;;
75059;SDS011;63640;59.264;18.116;2023-06-19T00:59:41;32.33;;;22.10;;
75059;SDS011;63640;59.264;18.116;2023-06-19T01:02:07;31.75;;;20.58;;
75059;SDS011;63640;59.264;18.116;2023-06-19T01:04:32;32.70;;;20.50;;
75059;SDS011;63640;59.264;18.116;2023-06-19T01:07:03;28.15;;;19.55;;
75059;SDS011;63640;59.264;18.116;2023-06-19T01:09:37;33.53;;;20.80;;
75059;SDS011;63640;59.264;18.116;2023-06-19T01:12:08;36.55;;;21.73;;
75059;SDS011;63640;59.264;18.116;2023-06-19T01:14:48;34.42;;;21.38;;
75059;SDS011;63640;59.264;18.116;2023-06-19T01:17:19;29.83;;;19.52;;
75059;SDS011;63640;59.264;18.116;2023-06-19T01:19:45;35.38;;;20.85;;
75059;SDS011;63640;59.264;18.116;2023-06-19T01:22:10;31.80;;;19.50;;
75059;SDS011;63640;59.264;18.116;2023-06-19T01:24:36;28.30;;;18.92;;
75059;SDS011;63640;59.264;18.116;2023-06-19T01:27:01;29.70;;;18.65;;
75059;SDS011;63640;59.264;18.116;2023-06-19T01:29:27;26.45;;;18.65;;
75059;SDS011;63640;59.264;18.116;2023-06-19T01:32:03;27.67;;;17.80;;
75059;SDS011;63640;59.264;18.116;2023-06-19T01:34:32;27.02;;;17.90;;
75059;SDS011;63640;59.264;18.116;2023-06-19T01:36:58;24.98;;;16.80;;
75059;SDS011;63640;59.264;18.116;2023-06-19T01:39:24;24.02;;;16.13;;
75059;SDS011;63640;59.264;18.116;2023-06-19T01:41:51;24.48;;;15.93;;
75059;SDS011;63640;59.264;18.116;2023-06-19T01:44:17;22.77;;;15.20;;
75059;SDS011;63640;59.264;18.116;2023-06-19T01:46:43;23.00;;;14.75;;
75059;SDS011;63640;59.264;18.116;2023-06-19T01:49:13;21.90;;;14.80;;
75059;SDS011;63640;59.264;18.116;2023-06-19T01:51:38;21.77;;;15.85;;
75059;SDS011;63640;59.264;18.116;2023-06-19T01:54:04;22.02;;;15.20;;
75059;SDS011;63640;59.264;18.116;2023-06-19T01:56:29;21.80;;;16.40;;
75059;SDS011;63640;59.264;18.116;2023-06-19T01:58:55;24.38;;;16.20;;
75059;SDS011;63640;59.264;18.116;2023-06-19T02:01:21;20.23;;;14.55;;
75059;SDS011;63640;59.264;18.116;2023-06-19T02:03:46;20.50;;;14.25;;
75059;SDS011;63640;59.264;18.116;2023-06-19T02:06:12;21.10;;;14.88;;
75059;SDS011;63640;59.264;18.116;2023-06-19T02:08:37;18.80;;;15.80;;
75059;SDS011;63640;59.264;18.116;2023-06-19T02:11:02;21.40;;;16.33;;
75059;SDS011;63640;59.264;18.116;2023-06-19T02:13:28;18.38;;;14.48;;
75059;SDS011;63640;59.264;18.116;2023-06-19T02:15:53;20.55;;;15.68;;
75059;SDS011;63640;59.264;18.116;2023-06-19T02:18:19;16.73;;;13.40;;
75059;SDS011;63640;59.264;18.116;2023-06-19T02:20:44;15.65;;;13.05;;
75059;SDS011;63640;59.264;18.116;2023-06-19T02:23:10;17.13;;;13.88;;
75059;SDS011;63640;59.264;18.116;2023-06-19T02:25:36;16.70;;;12.77;;
75059;SDS011;63640;59.264;18.116;2023-06-19T02:28:01;18.88;;;13.85;;
75059;SDS011;63640;59.264;18.116;2023-06-19T02:30:28;18.50;;;15.40;;
75059;SDS011;63640;59.264;18.116;2023-06-19T02:32:54;17.73;;;12.98;;
75059;SDS011;63640;59.264;18.116;2023-06-19T02:35:19;17.70;;;13.98;;
75059;SDS011;63640;59.264;18.116;2023-06-19T02:37:45;16.13;;;12.57;;
75059;SDS011;63640;59.264;18.116;2023-06-19T02:40:14;14.68;;;12.13;;
75059;SDS011;63640;59.264;18.116;2023-06-19T02:42:39;18.58;;;13.95;;
75059;SDS011;63640;59.264;18.116;2023-06-19T02:45:05;16.13;;;13.43;;
75059;SDS011;63640;59.264;18.116;2023-06-19T02:47:31;17.20;;;12.15;;
75059;SDS011;63640;59.264;18.116;2023-06-19T02:50:00;15.02;;;12.70;;
75059;SDS011;63640;59.264;18.116;2023-06-19T02:52:27;20.35;;;14.07;;
75059;SDS011;63640;59.264;18.116;2023-06-19T02:54:53;15.40;;;13.05;;
75059;SDS011;63640;59.264;18.116;2023-06-19T02:57:19;16.00;;;12.40;;
75059;SDS011;63640;59.264;18.116;2023-06-19T02:59:44;18.38;;;13.05;;
75059;SDS011;63640;59.264;18.116;2023-06-19T03:02:10;16.85;;;14.05;;
75059;SDS011;63640;59.264;18.116;2023-06-19T03:04:36;17.75;;;15.48;;
75059;SDS011;63640;59.264;18.116;2023-06-19T03:07:02;16.40;;;13.02;;
75059;SDS011;63640;59.264;18.116;2023-06-19T03:09:28;16.83;;;13.65;;
75059;SDS011;63640;59.264;18.116;2023-06-19T03:11:53;21.50;;;14.77;;
75059;SDS011;63640;59.264;18.116;2023-06-19T03:14:19;16.33;;;13.20;;
75059;SDS011;63640;59.264;18.116;2023-06-19T03:16:45;19.95;;;14.57;;
75059;SDS011;63640;59.264;18.116;2023-06-19T03:19:10;16.15;;;13.15;;
75059;SDS011;63640;59.264;18.116;2023-06-19T03:21:36;17.77;;;12.88;;
75059;SDS011;63640;59.264;18.116;2023-06-19T03:24:02;17.80;;;14.23;;
75059;SDS011;63640;59.264;18.116;2023-06-19T03:26:28;17.67;;;12.73;;
75059;SDS011;63640;59.264;18.116;2023-06-19T03:28:54;16.77;;;13.20;;
75059;SDS011;63640;59.264;18.116;2023-06-19T03:31:19;17.60;;;13.23;;
75059;SDS011;63640;59.264;18.116;2023-06-19T03:33:44;19.05;;;14.32;;
75059;SDS011;63640;59.264;18.116;2023-06-19T03:36:10;18.25;;;13.40;;
75059;SDS011;63640;59.264;18.116;2023-06-19T03:38:35;17.83;;;13.13;;
75059;SDS011;63640;59.264;18.116;2023-06-19T03:41:01;19.98;;;14.52;;
75059;SDS011;63640;59.264;18.116;2023-06-19T03:43:27;20.45;;;14.23;;
75059;SDS011;63640;59.264;18.116;2023-06-19T03:45:52;17.40;;;13.80;;
75059;SDS011;63640;59.264;18.116;2023-06-19T03:48:18;18.05;;;13.35;;
75059;SDS011;63640;59.264;18.116;2023-06-19T03:50:43;22.42;;;16.45;;
75059;SDS011;63640;59.264;18.116;2023-06-19T03:53:09;21.67;;;16.02;;
75059;SDS011;63640;59.264;18.116;2023-06-19T03:55:34;18.92;;;15.35;;
75059;SDS011;63640;59.264;18.116;2023-06-19T03:58:00;19.30;;;15.50;;
75059;SDS011;63640;59.264;18.116;2023-06-19T04:00:26;19.90;;;13.93;;
75059;SDS011;63640;59.264;18.116;2023-06-19T04:02:51;22.05;;;15.05;;
75059;SDS011;63640;59.264;18.116;2023-06-19T04:05:17;21.27;;;14.70;;
75059;SDS011;63640;59.264;18.116;2023-06-19T04:07:43;24.02;;;16.33;;
75059;SDS011;63640;59.264;18.116;2023-06-19T04:10:08;24.10;;;16.40;;
75059;SDS011;63640;59.264;18.116;2023-06-19T04:12:36;24.40;;;18.13;;
75059;SDS011;63640;59.264;18.116;2023-06-19T04:15:02;21.77;;;16.25;;
75059;SDS011;63640;59.264;18.116;2023-06-19T04:17:28;23.73;;;18.45;;
75059;SDS011;63640;59.264;18.116;2023-06-19T04:19:53;28.83;;;18.65;;
75059;SDS011;63640;59.264;18.116;2023-06-19T04:22:19;23.50;;;17.33;;
75059;SDS011;63640;59.264;18.116;2023-06-19T04:24:44;22.10;;;16.45;;
75059;SDS011;63640;59.264;18.116;2023-06-19T04:27:10;22.05;;;15.95;;
75059;SDS011;63640;59.264;18.116;2023-06-19T04:29:35;23.65;;;14.88;;
75059;SDS011;63640;59.264;18.116;2023-06-19T04:32:00;21.58;;;14.63;;
75059;SDS011;63640;59.264;18.116;2023-06-19T04:34:28;22.55;;;15.05;;
75059;SDS011;63640;59.264;18.116;2023-06-19T04:36:54;26.00;;;16.08;;
75059;SDS011;63640;59.264;18.116;2023-06-19T04:39:23;26.98;;;17.27;;
75059;SDS011;63640;59.264;18.116;2023-06-19T04:41:49;23.45;;;15.90;;
75059;SDS011;63640;59.264;18.116;2023-06-19T04:44:14;25.02;;;16.13;;
75059;SDS011;63640;59.264;18.116;2023-06-19T04:46:41;22.60;;;15.15;;
75059;SDS011;63640;59.264;18.116;2023-06-19T04:49:09;26.02;;;16.45;;
75059;SDS011;63640;59.264;18.116;2023-06-19T04:51:34;26.80;;;16.27;;
75059;SDS011;63640;59.264;18.116;2023-06-19T04:54:00;23.80;;;15.30;;
75059;SDS011;63640;59.264;18.116;2023-06-19T04:56:26;20.80;;;15.18;;
75059;SDS011;63640;59.264;18.116;2023-06-19T04:58:51;24.23;;;16.05;;
75059;SDS011;63640;59.264;18.116;2023-06-19T05:01:17;22.35;;;16.63;;
75059;SDS011;63640;59.264;18.116;2023-06-19T05:03:44;23.88;;;17.15;;
75059;SDS011;63640;59.264;18.116;2023-06-19T05:06:11;25.63;;;17.05;;
75059;SDS011;63640;59.264;18.116;2023-06-19T05:08:36;25.05;;;16.05;;
75059;SDS011;63640;59.264;18.116;2023-06-19T05:11:02;26.30;;;16.10;;
75059;SDS011;63640;59.264;18.116;2023-06-19T05:13:28;29.60;;;19.00;;
75059;SDS011;63640;59.264;18.116;2023-06-19T05:15:53;28.70;;;17.15;;
75059;SDS011;63640;59.264;18.116;2023-06-19T05:18:21;27.13;;;16.40;;
75059;SDS011;63640;59.264;18.116;2023-06-19T05:20:46;28.42;;;16.98;;
75059;SDS011;63640;59.264;18.116;2023-06-19T05:23:12;29.67;;;17.90;;
75059;SDS011;63640;59.264;18.116;2023-06-19T05:25:37;24.55;;;16.15;;
75059;SDS011;63640;59.264;18.116;2023-06-19T05:28:03;27.42;;;15.07;;
75059;SDS011;63640;59.264;18.116;2023-06-19T05:30:29;26.80;;;16.98;;
75059;SDS011;63640;59.264;18.116;2023-06-19T05:32:54;25.58;;;15.13;;
75059;SDS011;63640;59.264;18.116;2023-06-19T05:35:20;23.98;;;15.20;;
75059;SDS011;63640;59.264;18.116;2023-06-19T05:37:46;28.48;;;16.25;;
75059;SDS011;63640;59.264;18.116;2023-06-19T05:40:12;26.08;;;15.93;;
75059;SDS011;63640;59.264;18.116;2023-06-19T05:42:39;25.10;;;16.27;;
75059;SDS011;63640;59.264;18.116;2023-06-19T05:45:05;27.13;;;16.25;;
75059;SDS011;63640;59.264;18.116;2023-06-19T05:47:31;23.23;;;15.43;;
75059;SDS011;63640;59.264;18.116;2023-06-19T05:49:57;21.88;;;14.25;;
75059;SDS011;63640;59.264;18.116;2023-06-19T05:52:22;23.70;;;15.82;;
75059;SDS011;63640;59.264;18.116;2023-06-19T05:54:48;25.67;;;15.48;;
75059;SDS011;63640;59.264;18.116;2023-06-19T05:57:14;25.35;;;16.60;;
75059;SDS011;63640;59.264;18.116;2023-06-19T05:59:46;22.67;;;15.38;;
75059;SDS011;63640;59.264;18.116;2023-06-19T06:02:12;24.17;;;14.90;;
75059;SDS011;63640;59.264;18.116;2023-06-19T06:04:37;25.42;;;15.60;;
75059;SDS011;63640;59.264;18.116;2023-06-19T06:07:03;24.80;;;14.35;;
75059;SDS011;63640;59.264;18.116;2023-06-19T06:09:28;24.10;;;16.70;;
75059;SDS011;63640;59.264;18.116;2023-06-19T06:11:55;24.48;;;15.45;;
75059;SDS011;63640;59.264;18.116;2023-06-19T06:14:21;21.60;;;15.57;;
75059;SDS011;63640;59.264;18.116;2023-06-19T06:16:46;23.98;;;17.00;;
75059;SDS011;63640;59.264;18.116;2023-06-19T06:19:12;23.00;;;15.00;;
75059;SDS011;63640;59.264;18.116;2023-06-19T06:21:37;22.35;;;15.07;;
75059;SDS011;63640;59.264;18.116;2023-06-19T06:24:03;22.05;;;15.55;;
75059;SDS011;63640;59.264;18.116;2023-06-19T06:26:29;23.95;;;15.25;;
75059;SDS011;63640;59.264;18.116;2023-06-19T06:28:54;25.80;;;15.15;;
75059;SDS011;63640;59.264;18.116;2023-06-19T06:31:21;22.33;;;15.95;;
75059;SDS011;63640;59.264;18.116;2023-06-19T06:33:48;24.55;;;15.50;;
75059;SDS011;63640;59.264;18.116;2023-06-19T06:36:16;22.10;;;14.90;;
75059;SDS011;63640;59.264;18.116;2023-06-19T06:38:42;20.27;;;14.30;;
75059;SDS011;63640;59.264;18.116;2023-06-19T06:41:07;20.67;;;13.93;;
75059;SDS011;63640;59.264;18.116;2023-06-19T06:43:33;21.10;;;14.07;;
75059;SDS011;63640;59.264;18.116;2023-06-19T06:45:59;18.05;;;13.43;;
75059;SDS011;63640;59.264;18.116;2023-06-19T06:48:24;20.20;;;14.07;;
75059;SDS011;63640;59.264;18.116;2023-06-19T06:50:50;20.35;;;14.07;;
75059;SDS011;63640;59.264;18.116;2023-06-19T06:53:16;19.70;;;13.32;;
75059;SDS011;63640;59.264;18.116;2023-06-19T06:55:41;16.95;;;11.77;;
75059;SDS011;63640;59.264;18.116;2023-06-19T06:58:07;16.95;;;11.95;;
75059;SDS011;63640;59.264;18.116;2023-06-19T07:00:32;18.70;;;13.23;;
75059;SDS011;63640;59.264;18.116;2023-06-19T07:02:58;18.58;;;12.45;;
75059;SDS011;63640;59.264;18.116;2023-06-19T07:05:24;17.27;;;12.05;;
75059;SDS011;63640;59.264;18.116;2023-06-19T07:07:49;15.57;;;11.05;;
75059;SDS011;63640;59.264;18.116;2023-06-19T07:10:15;14.48;;;11.32;;
75059;SDS011;63640;59.264;18.116;2023-06-19T07:12:47;16.02;;;11.05;;
75059;SDS011;63640;59.264;18.116;2023-06-19T07:15:13;16.50;;;10.35;;
75059;SDS011;63640;59.264;18.116;2023-06-19T07:17:38;14.32;;;11.30;;
75059;SDS011;63640;59.264;18.116;2023-06-19T07:20:04;16.65;;;9.95;;
75059;SDS011;63640;59.264;18.116;2023-06-19T07:22:31;14.93;;;10.27;;
75059;SDS011;63640;59.264;18.116;2023-06-19T07:24:56;15.48;;;9.70;;
75059;SDS011;63640;59.264;18.116;2023-06-19T07:27:22;12.52;;;9.40;;
75059;SDS011;63640;59.264;18.116;2023-06-19T07:29:48;12.25;;;9.32;;
75059;SDS011;63640;59.264;18.116;2023-06-19T07:32:14;13.35;;;9.50;;
75059;SDS011;63640;59.264;18.116;2023-06-19T07:34:39;15.25;;;10.50;;
75059;SDS011;63640;59.264;18.116;2023-06-19T07:37:05;13.80;;;9.70;;
75059;SDS011;63640;59.264;18.116;2023-06-19T07:39:30;14.77;;;9.07;;
75059;SDS011;63640;59.264;18.116;2023-06-19T07:41:56;15.25;;;9.65;;
75059;SDS011;63640;59.264;18.116;2023-06-19T07:44:21;16.48;;;9.60;;
75059;SDS011;63640;59.264;18.116;2023-06-19T07:46:47;13.43;;;8.88;;
75059;SDS011;63640;59.264;18.116;2023-06-19T07:49:12;14.73;;;9.80;;
75059;SDS011;63640;59.264;18.116;2023-06-19T07:51:38;14.52;;;9.90;;
75059;SDS011;63640;59.264;18.116;2023-06-19T07:54:03;15.73;;;8.88;;
75059;SDS011;63640;59.264;18.116;2023-06-19T07:56:29;13.48;;;9.27;;
75059;SDS011;63640;59.264;18.116;2023-06-19T07:58:54;11.93;;;8.73;;
75059;SDS011;63640;59.264;18.116;2023-06-19T08:01:20;11.60;;;8.02;;
75059;SDS011;63640;59.264;18.116;2023-06-19T08:03:45;12.18;;;8.05;;
75059;SDS011;63640;59.264;18.116;2023-06-19T08:06:11;13.35;;;8.52;;
75059;SDS011;63640;59.264;18.116;2023-06-19T08:08:37;11.98;;;7.70;;
75059;SDS011;63640;59.264;18.116;2023-06-19T08:11:02;14.95;;;8.13;;
75059;SDS011;63640;59.264;18.116;2023-06-19T08:13:28;14.23;;;7.80;;
75059;SDS011;63640;59.264;18.116;2023-06-19T08:15:53;12.57;;;7.47;;
75059;SDS011;63640;59.264;18.116;2023-06-19T08:18:19;12.15;;;7.97;;
75059;SDS011;63640;59.264;18.116;2023-06-19T08:20:44;14.57;;;8.07;;
75059;SDS011;63640;59.264;18.116;2023-06-19T08:23:10;14.68;;;7.50;;
75059;SDS011;63640;59.264;18.116;2023-06-19T08:25:35;11.73;;;7.32;;
75059;SDS011;63640;59.264;18.116;2023-06-19T08:28:01;11.88;;;7.80;;
75059;SDS011;63640;59.264;18.116;2023-06-19T08:30:26;12.20;;;8.02;;
75059;SDS011;63640;59.264;18.116;2023-06-19T08:32:52;12.63;;;8.30;;
75059;SDS011;63640;59.264;18.116;2023-06-19T08:35:17;13.65;;;9.52;;
75059;SDS011;63640;59.264;18.116;2023-06-19T08:37:43;12.13;;;7.93;;
75059;SDS011;63640;59.264;18.116;2023-06-19T08:40:09;12.05;;;7.50;;
75059;SDS011;63640;59.264;18.116;2023-06-19T08:42:35;10.55;;;7.70;;
75059;SDS011;63640;59.264;18.116;2023-06-19T08:45:01;11.90;;;7.63;;
75059;SDS011;63640;59.264;18.116;2023-06-19T08:47:31;12.93;;;8.45;;
75059;SDS011;63640;59.264;18.116;2023-06-19T08:49:57;13.77;;;7.93;;
75059;SDS011;63640;59.264;18.116;2023-06-19T08:52:23;9.82;;;7.53;;
75059;SDS011;63640;59.264;18.116;2023-06-19T08:54:49;11.52;;;8.02;;
75059;SDS011;63640;59.264;18.116;2023-06-19T08:57:14;10.50;;;7.78;;
75059;SDS011;63640;59.264;18.116;2023-06-19T08:59:41;11.77;;;7.85;;
75059;SDS011;63640;59.264;18.116;2023-06-19T09:02:15;11.93;;;7.90;;
75059;SDS011;63640;59.264;18.116;2023-06-19T09:04:41;11.45;;;8.13;;
75059;SDS011;63640;59.264;18.116;2023-06-19T09:07:07;10.25;;;7.40;;
75059;SDS011;63640;59.264;18.116;2023-06-19T09:09:33;10.70;;;7.13;;
75059;SDS011;63640;59.264;18.116;2023-06-19T09:12:08;10.68;;;7.97;;
75059;SDS011;63640;59.264;18.116;2023-06-19T09:14:41;11.65;;;7.70;;
75059;SDS011;63640;59.264;18.116;2023-06-19T09:17:11;14.65;;;7.65;;
75059;SDS011;63640;59.264;18.116;2023-06-19T09:19:38;14.45;;;7.75;;
75059;SDS011;63640;59.264;18.116;2023-06-19T09:22:06;11.10;;;7.00;;
75059;SDS011;63640;59.264;18.116;2023-06-19T09:24:36;14.50;;;7.57;;
75059;SDS011;63640;59.264;18.116;2023-06-19T09:27:06;11.63;;;7.40;;
75059;SDS011;63640;59.264;18.116;2023-06-19T09:29:32;11.30;;;7.53;;
75059;SDS011;63640;59.264;18.116;2023-06-19T09:31:58;10.10;;;6.80;;
75059;SDS011;63640;59.264;18.116;2023-06-19T09:34:24;18.23;;;7.45;;
75059;SDS011;63640;59.264;18.116;2023-06-19T09:36:50;10.77;;;7.22;;
75059;SDS011;63640;59.264;18.116;2023-06-19T09:39:15;12.90;;;7.45;;
75059;SDS011;63640;59.264;18.116;2023-06-19T09:41:42;12.70;;;8.73;;
75059;SDS011;63640;59.264;18.116;2023-06-19T09:44:07;12.82;;;7.57;;
75059;SDS011;63640;59.264;18.116;2023-06-19T09:46:37;12.15;;;7.75;;
75059;SDS011;63640;59.264;18.116;2023-06-19T09:49:05;13.40;;;7.63;;
75059;SDS011;63640;59.264;18.116;2023-06-19T09:51:32;18.55;;;7.88;;
75059;SDS011;63640;59.264;18.116;2023-06-19T09:54:01;14.10;;;8.80;;
75059;SDS011;63640;59.264;18.116;2023-06-19T09:56:28;11.50;;;8.00;;
75059;SDS011;63640;59.264;18.116;2023-06-19T09:58:54;12.80;;;7.97;;
75059;SDS011;63640;59.264;18.116;2023-06-19T10:01:24;12.30;;;7.57;;
75059;SDS011;63640;59.264;18.116;2023-06-19T10:04:00;11.45;;;7.53;;
75059;SDS011;63640;59.264;18.116;2023-06-19T10:06:27;12.05;;;8.02;;
75059;SDS011;63640;59.264;18.116;2023-06-19T10:08:55;12.77;;;7.40;;
75059;SDS011;63640;59.264;18.116;2023-06-19T10:11:20;12.30;;;8.48;;
75059;SDS011;63640;59.264;18.116;2023-06-19T10:13:46;16.30;;;8.18;;
75059;SDS011;63640;59.264;18.116;2023-06-19T10:16:21;12.63;;;8.50;;
75059;SDS011;63640;59.264;18.116;2023-06-19T10:18:47;11.90;;;8.15;;
75059;SDS011;63640;59.264;18.116;2023-06-19T10:21:20;17.30;;;9.23;;
75059;SDS011;63640;59.264;18.116;2023-06-19T10:23:56;12.13;;;8.23;;
75059;SDS011;63640;59.264;18.116;2023-06-19T10:26:29;13.95;;;8.32;;
75059;SDS011;63640;59.264;18.116;2023-06-19T10:28:56;11.23;;;8.05;;
75059;SDS011;63640;59.264;18.116;2023-06-19T10:31:21;13.02;;;8.20;;
75059;SDS011;63640;59.264;18.116;2023-06-19T10:33:47;13.23;;;8.20;;
75059;SDS011;63640;59.264;18.116;2023-06-19T10:36:17;15.90;;;9.30;;
75059;SDS011;63640;59.264;18.116;2023-06-19T10:38:44;12.57;;;7.70;;
75059;SDS011;63640;59.264;18.116;2023-06-19T10:41:19;12.82;;;8.32;;
75059;SDS011;63640;59.264;18.116;2023-06-19T10:46:25;12.68;;;7.95;;
75059;SDS011;63640;59.264;18.116;2023-06-19T10:48:55;12.32;;;7.57;;
75059;SDS011;63640;59.264;18.116;2023-06-19T10:53:53;15.52;;;8.88;;
75059;SDS011;63640;59.264;18.116;2023-06-19T10:56:20;12.60;;;7.80;;
75059;SDS011;63640;59.264;18.116;2023-06-19T10:58:46;13.00;;;7.53;;
75059;SDS011;63640;59.264;18.116;2023-06-19T11:01:11;12.93;;;7.55;;
75059;SDS011;63640;59.264;18.116;2023-06-19T11:03:37;16.52;;;9.48;;
75059;SDS011;63640;59.264;18.116;2023-06-19T11:06:02;19.90;;;9.20;;
75059;SDS011;63640;59.264;18.116;2023-06-19T11:08:28;17.35;;;10.95;;
75059;SDS011;63640;59.264;18.116;2023-06-19T11:10:54;18.77;;;11.13;;
75059;SDS011;63640;59.264;18.116;2023-06-19T11:13:20;21.38;;;11.27;;
75059;SDS011;63640;59.264;18.116;2023-06-19T11:15:49;19.67;;;11.25;;
75059;SDS011;63640;59.264;18.116;2023-06-19T11:18:16;18.38;;;11.18;;
75059;SDS011;63640;59.264;18.116;2023-06-19T11:20:49;18.45;;;10.30;;
75059;SDS011;63640;59.264;18.116;2023-06-19T11:23:27;24.98;;;11.23;;
75059;SDS011;63640;59.264;18.116;2023-06-19T11:25:53;19.55;;;10.63;;
75059;SDS011;63640;59.264;18.116;2023-06-19T11:28:19;16.85;;;10.38;;
75059;SDS011;63640;59.264;18.116;2023-06-19T11:30:47;16.17;;;9.50;;
75059;SDS011;63640;59.264;18.116;2023-06-19T11:33:15;16.55;;;10.40;;
75059;SDS011;63640;59.264;18.116;2023-06-19T11:35:49;18.80;;;9.75;;
75059;SDS011;63640;59.264;18.116;2023-06-19T11:38:21;14.93;;;9.40;;
75059;SDS011;63640;59.264;18.116;2023-06-19T11:40:48;17.15;;;9.70;;
75059;SDS011;63640;59.264;18.116;2023-06-19T11:43:24;14.60;;;8.55;;
75059;SDS011;63640;59.264;18.116;2023-06-19T11:45:53;15.48;;;9.15;;
75059;SDS011;63640;59.264;18.116;2023-06-19T11:48:25;14.40;;;9.20;;
75059;SDS011;63640;59.264;18.116;2023-06-19T11:50:51;16.88;;;9.65;;
75059;SDS011;63640;59.264;18.116;2023-06-19T11:53:18;15.85;;;9.35;;
75059;SDS011;63640;59.264;18.116;2023-06-19T11:55:45;17.33;;;8.73;;
75059;SDS011;63640;59.264;18.116;2023-06-19T11:58:10;15.25;;;9.55;;
75059;SDS011;63640;59.264;18.116;2023-06-19T12:00:36;12.65;;;8.38;;
75059;SDS011;63640;59.264;18.116;2023-06-19T12:03:02;12.60;;;8.30;;
75059;SDS011;63640;59.264;18.116;2023-06-19T12:05:29;16.65;;;9.32;;
75059;SDS011;63640;59.264;18.116;2023-06-19T12:07:55;12.68;;;8.68;;
75059;SDS011;63640;59.264;18.116;2023-06-19T12:10:21;17.73;;;8.93;;
75059;SDS011;63640;59.264;18.116;2023-06-19T12:12:47;13.38;;;8.95;;
75059;SDS011;63640;59.264;18.116;2023-06-19T12:15:12;12.60;;;8.52;;
75059;SDS011;63640;59.264;18.116;2023-06-19T12:17:38;13.05;;;7.78;;
75059;SDS011;63640;59.264;18.116;2023-06-19T12:20:04;14.13;;;8.80;;
75059;SDS011;63640;59.264;18.116;2023-06-19T12:22:34;13.48;;;8.40;;
75059;SDS011;63640;59.264;18.116;2023-06-19T12:25:00;11.93;;;8.38;;
75059;SDS011;63640;59.264;18.116;2023-06-19T12:27:26;13.75;;;7.95;;
75059;SDS011;63640;59.264;18.116;2023-06-19T12:29:51;12.48;;;9.00;;
75059;SDS011;63640;59.264;18.116;2023-06-19T12:32:17;13.38;;;8.23;;
75059;SDS011;63640;59.264;18.116;2023-06-19T12:34:42;12.57;;;8.27;;
75059;SDS011;63640;59.264;18.116;2023-06-19T12:37:13;12.02;;;7.97;;
75059;SDS011;63640;59.264;18.116;2023-06-19T12:39:40;11.98;;;7.80;;
75059;SDS011;63640;59.264;18.116;2023-06-19T12:42:05;13.13;;;7.85;;
75059;SDS011;63640;59.264;18.116;2023-06-19T12:44:31;13.10;;;8.43;;
75059;SDS011;63640;59.264;18.116;2023-06-19T12:46:57;12.00;;;7.80;;
75059;SDS011;63640;59.264;18.116;2023-06-19T12:49:25;12.63;;;7.88;;
75059;SDS011;63640;59.264;18.116;2023-06-19T12:51:50;9.73;;;6.65;;
75059;SDS011;63640;59.264;18.116;2023-06-19T12:54:17;13.05;;;7.53;;
75059;SDS011;63640;59.264;18.116;2023-06-19T12:56:43;14.20;;;7.82;;
75059;SDS011;63640;59.264;18.116;2023-06-19T12:59:09;12.43;;;8.52;;
75059;SDS011;63640;59.264;18.116;2023-06-19T13:01:35;12.40;;;7.70;;
75059;SDS011;63640;59.264;18.116;2023-06-19T13:04:00;10.70;;;7.32;;
75059;SDS011;63640;59.264;18.116;2023-06-19T13:06:26;13.77;;;7.55;;
75059;SDS011;63640;59.264;18.116;2023-06-19T13:08:52;10.35;;;6.53;;
75059;SDS011;63640;59.264;18.116;2023-06-19T13:11:17;10.45;;;7.25;;
75059;SDS011;63640;59.264;18.116;2023-06-19T13:13:43;10.73;;;7.47;;
75059;SDS011;63640;59.264;18.116;2023-06-19T13:16:08;12.27;;;7.55;;
75059;SDS011;63640;59.264;18.116;2023-06-19T13:18:34;10.80;;;7.45;;
75059;SDS011;63640;59.264;18.116;2023-06-19T13:21:00;10.48;;;7.25;;
75059;SDS011;63640;59.264;18.116;2023-06-19T13:23:26;14.77;;;8.05;;
75059;SDS011;63640;59.264;18.116;2023-06-19T13:25:51;13.45;;;8.52;;
75059;SDS011;63640;59.264;18.116;2023-06-19T13:28:17;15.35;;;8.30;;
75059;SDS011;63640;59.264;18.116;2023-06-19T13:30:42;15.10;;;9.68;;
75059;SDS011;63640;59.264;18.116;2023-06-19T13:33:08;11.98;;;8.15;;
75059;SDS011;63640;59.264;18.116;2023-06-19T13:35:34;12.38;;;8.50;;
75059;SDS011;63640;59.264;18.116;2023-06-19T13:38:00;12.38;;;9.02;;
75059;SDS011;63640;59.264;18.116;2023-06-19T13:40:25;13.18;;;8.75;;
75059;SDS011;63640;59.264;18.116;2023-06-19T13:42:51;13.77;;;8.35;;
75059;SDS011;63640;59.264;18.116;2023-06-19T13:45:17;12.43;;;8.40;;
75059;SDS011;63640;59.264;18.116;2023-06-19T13:47:42;14.68;;;8.75;;
75059;SDS011;63640;59.264;18.116;2023-06-19T13:50:08;15.20;;;8.07;;
75059;SDS011;63640;59.264;18.116;2023-06-19T13:52:34;12.50;;;7.88;;
75059;SDS011;63640;59.264;18.116;2023-06-19T13:55:01;13.40;;;7.80;;
75059;SDS011;63640;59.264;18.116;2023-06-19T13:57:27;10.90;;;7.28;;
75059;SDS011;63640;59.264;18.116;2023-06-19T13:59:53;11.63;;;9.10;;
75059;SDS011;63640;59.264;18.116;2023-06-19T14:02:18;11.18;;;7.90;;
75059;SDS011;63640;59.264;18.116;2023-06-19T14:04:44;11.27;;;7.28;;
75059;SDS011;63640;59.264;18.116;2023-06-19T14:07:09;13.02;;;7.57;;
75059;SDS011;63640;59.264;18.116;2023-06-19T14:09:35;11.13;;;8.25;;
75059;SDS011;63640;59.264;18.116;2023-06-19T14:12:00;13.48;;;8.48;;
75059;SDS011;63640;59.264;18.116;2023-06-19T14:14:26;13.73;;;8.35;;